sensor_id;sensor_type;location;lat;lon;timestamp;P1;durP1;ratioP1;P2;durP2;ratioP2
37903;SDS011;23738;50.422;18.758;2024-02-28T00:02:02;91.10;;;52.50;;
37903;SDS011;23738;50.422;18.758;2024-02-28T00:04:31;91.90;;;50.30;;
37903;SDS011;23738;50.422;18.758;2024-02-28T00:07:02;84.70;;;46.50;;
37903;SDS011;23738;50.422;18.758;2024-02-28T00:09:32;82.00;;;46.30;;
37903;SDS011;23738;50.422;18.758;2024-02-28T00:12:02;82.80;;;48.20;;
37903;SDS011;23738;50.422;18.758;2024-02-28T00:14:32;91.10;;;51.50;;
37903;SDS011;23738;50.422;18.758;2024-02-28T00:17:01;98.10;;;54.40;;
37903;SDS011;23738;50.422;18.758;2024-02-28T00:19:31;99.40;;;56.10;;
37903;SDS011;23738;50.422;18.758;2024-02-28T00:22:01;96.70;;;56.10;;
37903;SDS011;23738;50.422;18.758;2024-02-28T00:24:30;100.20;;;53.70;;
37903;SDS011;23738;50.422;18.758;2024-02-28T00:27:00;89.40;;;50.40;;
37903;SDS011;23738;50.422;18.758;2024-02-28T00:29:30;91.30;;;48.60;;
37903;SDS011;23738;50.422;18.758;2024-02-28T00:32:00;86.20;;;50.80;;
37903;SDS011;23738;50.422;18.758;2024-02-28T00:34:29;104.80;;;59.30;;
37903;SDS011;23738;50.422;18.758;2024-02-28T00:36:59;92.10;;;53.80;;
37903;SDS011;23738;50.422;18.758;2024-02-28T00:39:29;93.30;;;54.80;;
37903;SDS011;23738;50.422;18.758;2024-02-28T00:41:58;104.10;;;55.80;;
37903;SDS011;23738;50.422;18.758;2024-02-28T00:44:28;105.90;;;58.90;;
37903;SDS011;23738;50.422;18.758;2024-02-28T00:46:58;97.80;;;54.90;;
37903;SDS011;23738;50.422;18.758;2024-02-28T00:49:28;94.60;;;53.80;;
37903;SDS011;23738;50.422;18.758;2024-02-28T00:51:57;94.30;;;55.90;;
37903;SDS011;23738;50.422;18.758;2024-02-28T00:54:27;89.10;;;52.10;;
37903;SDS011;23738;50.422;18.758;2024-02-28T00:56:57;89.20;;;55.60;;
37903;SDS011;23738;50.422;18.758;2024-02-28T00:59:27;103.50;;;61.90;;
37903;SDS011;23738;50.422;18.758;2024-02-28T01:01:57;91.10;;;50.50;;
37903;SDS011;23738;50.422;18.758;2024-02-28T01:04:26;101.40;;;54.50;;
37903;SDS011;23738;50.422;18.758;2024-02-28T01:06:56;80.00;;;46.90;;
37903;SDS011;23738;50.422;18.758;2024-02-28T01:09:26;81.10;;;48.00;;
37903;SDS011;23738;50.422;18.758;2024-02-28T01:11:55;82.50;;;49.30;;
37903;SDS011;23738;50.422;18.758;2024-02-28T01:14:25;90.50;;;55.50;;
37903;SDS011;23738;50.422;18.758;2024-02-28T01:16:54;88.00;;;53.70;;
37903;SDS011;23738;50.422;18.758;2024-02-28T01:19:24;82.60;;;48.40;;
37903;SDS011;23738;50.422;18.758;2024-02-28T01:21:54;92.80;;;47.70;;
37903;SDS011;23738;50.422;18.758;2024-02-28T01:24:24;79.90;;;45.30;;
37903;SDS011;23738;50.422;18.758;2024-02-28T01:26:53;89.30;;;51.30;;
37903;SDS011;23738;50.422;18.758;2024-02-28T01:29:23;85.90;;;50.00;;
37903;SDS011;23738;50.422;18.758;2024-02-28T01:31:52;93.00;;;53.50;;
37903;SDS011;23738;50.422;18.758;2024-02-28T01:34:22;95.90;;;56.60;;
37903;SDS011;23738;50.422;18.758;2024-02-28T01:36:51;89.40;;;49.70;;
37903;SDS011;23738;50.422;18.758;2024-02-28T01:39:21;84.80;;;46.30;;
37903;SDS011;23738;50.422;18.758;2024-02-28T01:41:54;79.70;;;46.30;;
37903;SDS011;23738;50.422;18.758;2024-02-28T01:44:24;82.80;;;47.90;;
37903;SDS011;23738;50.422;18.758;2024-02-28T01:46:53;87.70;;;51.60;;
37903;SDS011;23738;50.422;18.758;2024-02-28T01:49:23;84.50;;;51.30;;
37903;SDS011;23738;50.422;18.758;2024-02-28T01:51:53;89.50;;;51.40;;
37903;SDS011;23738;50.422;18.758;2024-02-28T01:54:24;90.90;;;51.50;;
37903;SDS011;23738;50.422;18.758;2024-02-28T01:56:56;81.70;;;46.40;;
37903;SDS011;23738;50.422;18.758;2024-02-28T01:59:26;80.90;;;46.60;;
37903;SDS011;23738;50.422;18.758;2024-02-28T02:01:57;87.60;;;49.30;;
37903;SDS011;23738;50.422;18.758;2024-02-28T02:04:27;83.10;;;49.00;;
37903;SDS011;23738;50.422;18.758;2024-02-28T02:06:57;87.60;;;50.20;;
37903;SDS011;23738;50.422;18.758;2024-02-28T02:09:27;99.00;;;56.90;;
37903;SDS011;23738;50.422;18.758;2024-02-28T02:11:57;91.60;;;50.70;;
37903;SDS011;23738;50.422;18.758;2024-02-28T02:14:26;92.60;;;50.50;;
37903;SDS011;23738;50.422;18.758;2024-02-28T02:16:56;102.90;;;54.40;;
37903;SDS011;23738;50.422;18.758;2024-02-28T02:19:25;83.90;;;47.80;;
37903;SDS011;23738;50.422;18.758;2024-02-28T02:21:56;89.90;;;51.40;;
37903;SDS011;23738;50.422;18.758;2024-02-28T02:24:28;88.50;;;50.90;;
37903;SDS011;23738;50.422;18.758;2024-02-28T02:26:58;86.40;;;49.60;;
37903;SDS011;23738;50.422;18.758;2024-02-28T02:29:28;88.80;;;51.20;;
37903;SDS011;23738;50.422;18.758;2024-02-28T02:31:57;95.90;;;52.60;;
37903;SDS011;23738;50.422;18.758;2024-02-28T02:34:27;79.20;;;44.10;;
37903;SDS011;23738;50.422;18.758;2024-02-28T02:36:56;81.10;;;44.50;;
37903;SDS011;23738;50.422;18.758;2024-02-28T02:39:25;85.20;;;46.10;;
37903;SDS011;23738;50.422;18.758;2024-02-28T02:41:55;78.30;;;47.70;;
37903;SDS011;23738;50.422;18.758;2024-02-28T02:44:24;82.50;;;49.70;;
37903;SDS011;23738;50.422;18.758;2024-02-28T02:46:54;83.50;;;49.70;;
37903;SDS011;23738;50.422;18.758;2024-02-28T02:49:23;93.80;;;50.30;;
37903;SDS011;23738;50.422;18.758;2024-02-28T02:51:53;81.00;;;47.30;;
37903;SDS011;23738;50.422;18.758;2024-02-28T02:54:22;78.10;;;47.10;;
37903;SDS011;23738;50.422;18.758;2024-02-28T02:56:52;83.20;;;45.40;;
37903;SDS011;23738;50.422;18.758;2024-02-28T02:59:21;83.90;;;49.80;;
37903;SDS011;23738;50.422;18.758;2024-02-28T03:01:50;91.20;;;54.30;;
37903;SDS011;23738;50.422;18.758;2024-02-28T03:04:20;86.40;;;50.00;;
37903;SDS011;23738;50.422;18.758;2024-02-28T03:06:50;86.30;;;48.10;;
37903;SDS011;23738;50.422;18.758;2024-02-28T03:09:20;82.90;;;45.80;;
37903;SDS011;23738;50.422;18.758;2024-02-28T03:11:51;71.70;;;42.30;;
37903;SDS011;23738;50.422;18.758;2024-02-28T03:14:21;83.10;;;47.70;;
37903;SDS011;23738;50.422;18.758;2024-02-28T03:16:51;84.40;;;47.00;;
37903;SDS011;23738;50.422;18.758;2024-02-28T03:19:21;81.40;;;47.20;;
37903;SDS011;23738;50.422;18.758;2024-02-28T03:21:51;90.90;;;51.80;;
37903;SDS011;23738;50.422;18.758;2024-02-28T03:24:21;85.20;;;47.90;;
37903;SDS011;23738;50.422;18.758;2024-02-28T03:26:51;80.50;;;44.20;;
37903;SDS011;23738;50.422;18.758;2024-02-28T03:29:20;76.00;;;44.60;;
37903;SDS011;23738;50.422;18.758;2024-02-28T03:31:50;85.10;;;49.80;;
37903;SDS011;23738;50.422;18.758;2024-02-28T03:34:20;82.40;;;48.70;;
37903;SDS011;23738;50.422;18.758;2024-02-28T03:36:49;85.90;;;51.40;;
37903;SDS011;23738;50.422;18.758;2024-02-28T03:39:19;94.60;;;53.30;;
37903;SDS011;23738;50.422;18.758;2024-02-28T03:41:48;99.90;;;55.70;;
37903;SDS011;23738;50.422;18.758;2024-02-28T03:44:18;95.40;;;51.90;;
37903;SDS011;23738;50.422;18.758;2024-02-28T03:46:48;97.20;;;54.80;;
37903;SDS011;23738;50.422;18.758;2024-02-28T03:49:17;87.10;;;51.10;;
37903;SDS011;23738;50.422;18.758;2024-02-28T03:51:47;95.20;;;57.80;;
37903;SDS011;23738;50.422;18.758;2024-02-28T03:54:17;94.40;;;52.90;;
37903;SDS011;23738;50.422;18.758;2024-02-28T03:56:47;95.50;;;57.20;;
37903;SDS011;23738;50.422;18.758;2024-02-28T03:59:16;90.70;;;50.80;;
37903;SDS011;23738;50.422;18.758;2024-02-28T04:01:46;98.80;;;54.50;;
37903;SDS011;23738;50.422;18.758;2024-02-28T04:04:15;106.40;;;59.40;;
37903;SDS011;23738;50.422;18.758;2024-02-28T04:06:45;109.30;;;66.50;;
37903;SDS011;23738;50.422;18.758;2024-02-28T04:09:15;109.90;;;65.60;;
37903;SDS011;23738;50.422;18.758;2024-02-28T04:11:44;105.60;;;58.50;;
37903;SDS011;23738;50.422;18.758;2024-02-28T04:14:14;98.10;;;55.70;;
37903;SDS011;23738;50.422;18.758;2024-02-28T04:16:43;107.50;;;59.60;;
37903;SDS011;23738;50.422;18.758;2024-02-28T04:19:13;88.20;;;54.40;;
37903;SDS011;23738;50.422;18.758;2024-02-28T04:21:43;102.80;;;56.90;;
37903;SDS011;23738;50.422;18.758;2024-02-28T04:24:13;98.20;;;55.40;;
37903;SDS011;23738;50.422;18.758;2024-02-28T04:26:43;92.70;;;53.50;;
37903;SDS011;23738;50.422;18.758;2024-02-28T04:29:12;92.60;;;57.30;;
37903;SDS011;23738;50.422;18.758;2024-02-28T04:31:42;84.50;;;51.30;;
37903;SDS011;23738;50.422;18.758;2024-02-28T04:34:12;96.20;;;52.90;;
37903;SDS011;23738;50.422;18.758;2024-02-28T04:36:41;93.60;;;52.80;;
37903;SDS011;23738;50.422;18.758;2024-02-28T04:39:11;82.80;;;48.90;;
37903;SDS011;23738;50.422;18.758;2024-02-28T04:41:41;92.60;;;53.50;;
37903;SDS011;23738;50.422;18.758;2024-02-28T04:44:10;102.30;;;59.70;;
37903;SDS011;23738;50.422;18.758;2024-02-28T04:46:40;106.30;;;61.50;;
37903;SDS011;23738;50.422;18.758;2024-02-28T04:49:09;107.50;;;61.60;;
37903;SDS011;23738;50.422;18.758;2024-02-28T04:51:39;98.40;;;56.50;;
37903;SDS011;23738;50.422;18.758;2024-02-28T04:54:09;99.60;;;54.80;;
37903;SDS011;23738;50.422;18.758;2024-02-28T04:56:40;94.80;;;52.80;;
37903;SDS011;23738;50.422;18.758;2024-02-28T04:59:10;98.50;;;54.90;;
37903;SDS011;23738;50.422;18.758;2024-02-28T05:01:40;101.10;;;54.30;;
37903;SDS011;23738;50.422;18.758;2024-02-28T05:04:12;93.20;;;55.20;;
37903;SDS011;23738;50.422;18.758;2024-02-28T05:06:42;110.00;;;60.00;;
37903;SDS011;23738;50.422;18.758;2024-02-28T05:09:11;105.30;;;57.80;;
37903;SDS011;23738;50.422;18.758;2024-02-28T05:11:41;97.40;;;54.70;;
37903;SDS011;23738;50.422;18.758;2024-02-28T05:14:11;103.00;;;56.90;;
37903;SDS011;23738;50.422;18.758;2024-02-28T05:16:40;95.90;;;54.00;;
37903;SDS011;23738;50.422;18.758;2024-02-28T05:19:10;94.20;;;51.70;;
37903;SDS011;23738;50.422;18.758;2024-02-28T05:21:43;95.70;;;54.00;;
37903;SDS011;23738;50.422;18.758;2024-02-28T05:24:15;109.20;;;61.20;;
37903;SDS011;23738;50.422;18.758;2024-02-28T05:26:45;104.20;;;55.30;;
37903;SDS011;23738;50.422;18.758;2024-02-28T05:29:14;97.10;;;54.10;;
37903;SDS011;23738;50.422;18.758;2024-02-28T05:31:44;91.70;;;54.60;;
37903;SDS011;23738;50.422;18.758;2024-02-28T05:34:14;99.70;;;54.20;;
37903;SDS011;23738;50.422;18.758;2024-02-28T05:36:44;102.70;;;59.30;;
37903;SDS011;23738;50.422;18.758;2024-02-28T05:39:13;106.30;;;61.60;;
37903;SDS011;23738;50.422;18.758;2024-02-28T05:41:42;121.80;;;66.90;;
37903;SDS011;23738;50.422;18.758;2024-02-28T05:44:12;113.10;;;61.30;;
37903;SDS011;23738;50.422;18.758;2024-02-28T05:46:42;120.10;;;62.90;;
37903;SDS011;23738;50.422;18.758;2024-02-28T05:49:12;97.30;;;54.20;;
37903;SDS011;23738;50.422;18.758;2024-02-28T05:51:41;100.80;;;55.80;;
37903;SDS011;23738;50.422;18.758;2024-02-28T05:54:12;112.60;;;60.50;;
37903;SDS011;23738;50.422;18.758;2024-02-28T05:56:43;101.20;;;56.20;;
37903;SDS011;23738;50.422;18.758;2024-02-28T05:59:13;112.30;;;62.30;;
37903;SDS011;23738;50.422;18.758;2024-02-28T06:01:42;112.40;;;56.10;;
37903;SDS011;23738;50.422;18.758;2024-02-28T06:04:13;87.70;;;47.70;;
37903;SDS011;23738;50.422;18.758;2024-02-28T06:06:42;111.40;;;57.50;;
37903;SDS011;23738;50.422;18.758;2024-02-28T06:09:12;108.20;;;58.90;;
37903;SDS011;23738;50.422;18.758;2024-02-28T06:11:42;123.40;;;66.90;;
37903;SDS011;23738;50.422;18.758;2024-02-28T06:14:11;127.60;;;69.50;;
37903;SDS011;23738;50.422;18.758;2024-02-28T06:16:41;117.60;;;59.70;;
37903;SDS011;23738;50.422;18.758;2024-02-28T06:19:13;109.10;;;55.50;;
37903;SDS011;23738;50.422;18.758;2024-02-28T06:21:43;118.20;;;59.40;;
37903;SDS011;23738;50.422;18.758;2024-02-28T06:24:13;101.40;;;55.40;;
37903;SDS011;23738;50.422;18.758;2024-02-28T06:26:43;108.40;;;57.70;;
37903;SDS011;23738;50.422;18.758;2024-02-28T06:29:13;118.80;;;62.30;;
37903;SDS011;23738;50.422;18.758;2024-02-28T06:31:42;112.00;;;60.70;;
37903;SDS011;23738;50.422;18.758;2024-02-28T06:34:12;124.90;;;65.90;;
37903;SDS011;23738;50.422;18.758;2024-02-28T06:36:42;106.80;;;56.80;;
37903;SDS011;23738;50.422;18.758;2024-02-28T06:39:12;100.90;;;54.90;;
37903;SDS011;23738;50.422;18.758;2024-02-28T06:41:42;110.90;;;59.30;;
37903;SDS011;23738;50.422;18.758;2024-02-28T06:44:12;116.10;;;61.20;;
37903;SDS011;23738;50.422;18.758;2024-02-28T06:46:43;118.30;;;62.70;;
37903;SDS011;23738;50.422;18.758;2024-02-28T06:49:12;121.10;;;63.20;;
37903;SDS011;23738;50.422;18.758;2024-02-28T06:51:42;127.00;;;63.70;;
37903;SDS011;23738;50.422;18.758;2024-02-28T06:54:12;111.20;;;57.70;;
37903;SDS011;23738;50.422;18.758;2024-02-28T06:56:42;115.80;;;59.20;;
37903;SDS011;23738;50.422;18.758;2024-02-28T06:59:12;119.80;;;57.60;;
37903;SDS011;23738;50.422;18.758;2024-02-28T07:01:41;119.30;;;60.10;;
37903;SDS011;23738;50.422;18.758;2024-02-28T07:04:12;120.40;;;62.70;;
37903;SDS011;23738;50.422;18.758;2024-02-28T07:06:42;119.50;;;59.90;;
37903;SDS011;23738;50.422;18.758;2024-02-28T07:09:12;119.90;;;60.80;;
37903;SDS011;23738;50.422;18.758;2024-02-28T07:11:41;115.90;;;56.10;;
37903;SDS011;23738;50.422;18.758;2024-02-28T07:14:11;125.90;;;62.00;;
37903;SDS011;23738;50.422;18.758;2024-02-28T07:16:40;117.90;;;58.40;;
37903;SDS011;23738;50.422;18.758;2024-02-28T07:19:10;122.40;;;64.40;;
37903;SDS011;23738;50.422;18.758;2024-02-28T07:21:40;136.20;;;68.30;;
37903;SDS011;23738;50.422;18.758;2024-02-28T07:24:10;124.00;;;65.00;;
37903;SDS011;23738;50.422;18.758;2024-02-28T07:26:40;126.00;;;60.80;;
37903;SDS011;23738;50.422;18.758;2024-02-28T07:29:10;128.00;;;61.60;;
37903;SDS011;23738;50.422;18.758;2024-02-28T07:31:39;104.40;;;55.40;;
37903;SDS011;23738;50.422;18.758;2024-02-28T07:34:09;116.20;;;58.70;;
37903;SDS011;23738;50.422;18.758;2024-02-28T07:36:38;125.50;;;65.30;;
37903;SDS011;23738;50.422;18.758;2024-02-28T07:39:08;132.40;;;66.40;;
37903;SDS011;23738;50.422;18.758;2024-02-28T07:41:39;125.20;;;63.90;;
37903;SDS011;23738;50.422;18.758;2024-02-28T07:44:09;116.70;;;57.00;;
37903;SDS011;23738;50.422;18.758;2024-02-28T07:46:39;116.90;;;56.30;;
37903;SDS011;23738;50.422;18.758;2024-02-28T07:49:10;126.30;;;60.30;;
37903;SDS011;23738;50.422;18.758;2024-02-28T07:51:40;119.90;;;61.30;;
37903;SDS011;23738;50.422;18.758;2024-02-28T07:54:10;129.80;;;68.70;;
37903;SDS011;23738;50.422;18.758;2024-02-28T07:56:39;144.80;;;73.40;;
37903;SDS011;23738;50.422;18.758;2024-02-28T07:59:09;136.30;;;67.30;;
37903;SDS011;23738;50.422;18.758;2024-02-28T08:01:38;124.00;;;62.90;;
37903;SDS011;23738;50.422;18.758;2024-02-28T08:04:08;107.90;;;58.30;;
37903;SDS011;23738;50.422;18.758;2024-02-28T08:06:39;115.60;;;60.60;;
37903;SDS011;23738;50.422;18.758;2024-02-28T08:09:09;118.90;;;64.40;;
37903;SDS011;23738;50.422;18.758;2024-02-28T08:11:39;127.50;;;67.20;;
37903;SDS011;23738;50.422;18.758;2024-02-28T08:14:08;125.10;;;67.70;;
37903;SDS011;23738;50.422;18.758;2024-02-28T08:16:38;120.60;;;60.40;;
37903;SDS011;23738;50.422;18.758;2024-02-28T08:19:07;118.20;;;58.00;;
37903;SDS011;23738;50.422;18.758;2024-02-28T08:21:37;113.20;;;59.90;;
37903;SDS011;23738;50.422;18.758;2024-02-28T08:24:07;124.40;;;65.50;;
37903;SDS011;23738;50.422;18.758;2024-02-28T08:26:37;131.00;;;67.40;;
37903;SDS011;23738;50.422;18.758;2024-02-28T08:29:07;128.30;;;67.60;;
37903;SDS011;23738;50.422;18.758;2024-02-28T08:31:40;130.60;;;64.90;;
37903;SDS011;23738;50.422;18.758;2024-02-28T08:34:11;129.30;;;64.40;;
37903;SDS011;23738;50.422;18.758;2024-02-28T08:36:40;115.50;;;61.90;;
37903;SDS011;23738;50.422;18.758;2024-02-28T08:39:10;127.60;;;68.50;;
37903;SDS011;23738;50.422;18.758;2024-02-28T08:41:39;139.80;;;76.20;;
37903;SDS011;23738;50.422;18.758;2024-02-28T08:44:09;126.70;;;68.00;;
37903;SDS011;23738;50.422;18.758;2024-02-28T08:46:39;124.10;;;66.50;;
37903;SDS011;23738;50.422;18.758;2024-02-28T08:49:08;114.70;;;58.50;;
37903;SDS011;23738;50.422;18.758;2024-02-28T08:51:38;118.60;;;59.60;;
37903;SDS011;23738;50.422;18.758;2024-02-28T08:54:08;104.50;;;57.50;;
37903;SDS011;23738;50.422;18.758;2024-02-28T08:56:37;91.40;;;51.40;;
37903;SDS011;23738;50.422;18.758;2024-02-28T08:59:07;102.00;;;57.80;;
37903;SDS011;23738;50.422;18.758;2024-02-28T09:01:36;118.20;;;71.10;;
37903;SDS011;23738;50.422;18.758;2024-02-28T09:04:08;104.70;;;61.00;;
37903;SDS011;23738;50.422;18.758;2024-02-28T09:06:38;100.20;;;54.90;;
37903;SDS011;23738;50.422;18.758;2024-02-28T09:09:07;97.70;;;52.00;;
37903;SDS011;23738;50.422;18.758;2024-02-28T09:11:37;100.80;;;55.80;;
37903;SDS011;23738;50.422;18.758;2024-02-28T09:14:07;85.60;;;50.30;;
37903;SDS011;23738;50.422;18.758;2024-02-28T09:16:36;97.60;;;56.40;;
37903;SDS011;23738;50.422;18.758;2024-02-28T09:19:06;100.30;;;59.50;;
37903;SDS011;23738;50.422;18.758;2024-02-28T09:21:36;103.40;;;58.80;;
37903;SDS011;23738;50.422;18.758;2024-02-28T09:24:06;102.20;;;56.30;;
37903;SDS011;23738;50.422;18.758;2024-02-28T09:26:36;103.30;;;55.80;;
37903;SDS011;23738;50.422;18.758;2024-02-28T09:29:07;97.40;;;54.10;;
37903;SDS011;23738;50.422;18.758;2024-02-28T09:31:37;96.20;;;51.80;;
37903;SDS011;23738;50.422;18.758;2024-02-28T09:34:07;108.30;;;59.60;;
37903;SDS011;23738;50.422;18.758;2024-02-28T09:36:41;101.60;;;58.20;;
37903;SDS011;23738;50.422;18.758;2024-02-28T09:39:12;101.20;;;56.50;;
37903;SDS011;23738;50.422;18.758;2024-02-28T09:41:42;105.50;;;55.80;;
37903;SDS011;23738;50.422;18.758;2024-02-28T09:44:15;103.10;;;55.80;;
37903;SDS011;23738;50.422;18.758;2024-02-28T09:46:45;122.30;;;60.20;;
37903;SDS011;23738;50.422;18.758;2024-02-28T09:49:17;120.90;;;62.70;;
37903;SDS011;23738;50.422;18.758;2024-02-28T09:51:48;119.90;;;64.80;;
37903;SDS011;23738;50.422;18.758;2024-02-28T09:54:18;120.80;;;66.80;;
37903;SDS011;23738;50.422;18.758;2024-02-28T09:56:48;124.80;;;70.60;;
37903;SDS011;23738;50.422;18.758;2024-02-28T09:59:19;123.80;;;62.90;;
37903;SDS011;23738;50.422;18.758;2024-02-28T10:01:53;125.10;;;63.70;;
37903;SDS011;23738;50.422;18.758;2024-02-28T10:04:24;101.30;;;56.50;;
37903;SDS011;23738;50.422;18.758;2024-02-28T10:06:55;105.70;;;58.90;;
37903;SDS011;23738;50.422;18.758;2024-02-28T10:09:25;107.70;;;59.40;;
37903;SDS011;23738;50.422;18.758;2024-02-28T10:11:54;110.50;;;61.40;;
37903;SDS011;23738;50.422;18.758;2024-02-28T10:14:24;104.00;;;55.90;;
37903;SDS011;23738;50.422;18.758;2024-02-28T10:16:53;106.80;;;57.00;;
37903;SDS011;23738;50.422;18.758;2024-02-28T10:19:24;107.60;;;57.50;;
37903;SDS011;23738;50.422;18.758;2024-02-28T10:21:54;103.10;;;56.50;;
37903;SDS011;23738;50.422;18.758;2024-02-28T10:24:25;109.20;;;63.90;;
37903;SDS011;23738;50.422;18.758;2024-02-28T10:26:55;111.40;;;63.80;;
37903;SDS011;23738;50.422;18.758;2024-02-28T10:29:28;115.90;;;64.70;;
37903;SDS011;23738;50.422;18.758;2024-02-28T10:31:59;112.70;;;59.80;;
37903;SDS011;23738;50.422;18.758;2024-02-28T10:34:31;115.50;;;60.50;;
37903;SDS011;23738;50.422;18.758;2024-02-28T10:37:02;114.80;;;60.30;;
37903;SDS011;23738;50.422;18.758;2024-02-28T10:39:33;108.40;;;59.80;;
37903;SDS011;23738;50.422;18.758;2024-02-28T10:42:05;115.90;;;64.00;;
37903;SDS011;23738;50.422;18.758;2024-02-28T10:44:37;122.50;;;65.90;;
37903;SDS011;23738;50.422;18.758;2024-02-28T10:47:09;118.60;;;63.00;;
37903;SDS011;23738;50.422;18.758;2024-02-28T10:49:43;125.30;;;64.80;;
37903;SDS011;23738;50.422;18.758;2024-02-28T10:52:13;124.10;;;62.90;;
37903;SDS011;23738;50.422;18.758;2024-02-28T10:54:48;123.10;;;66.00;;
37903;SDS011;23738;50.422;18.758;2024-02-28T10:57:22;118.70;;;65.00;;
37903;SDS011;23738;50.422;18.758;2024-02-28T10:59:54;123.10;;;69.00;;
37903;SDS011;23738;50.422;18.758;2024-02-28T11:02:25;130.10;;;73.20;;
37903;SDS011;23738;50.422;18.758;2024-02-28T11:04:57;140.00;;;73.00;;
37903;SDS011;23738;50.422;18.758;2024-02-28T11:07:30;128.50;;;63.70;;
37903;SDS011;23738;50.422;18.758;2024-02-28T11:10:10;121.00;;;63.00;;
37903;SDS011;23738;50.422;18.758;2024-02-28T11:12:40;121.00;;;61.00;;
37903;SDS011;23738;50.422;18.758;2024-02-28T11:15:16;115.90;;;61.20;;
37903;SDS011;23738;50.422;18.758;2024-02-28T11:17:46;118.20;;;63.60;;
37903;SDS011;23738;50.422;18.758;2024-02-28T11:20:16;126.90;;;68.00;;
37903;SDS011;23738;50.422;18.758;2024-02-28T11:22:49;119.60;;;59.70;;
37903;SDS011;23738;50.422;18.758;2024-02-28T11:25:27;130.20;;;64.70;;
37903;SDS011;23738;50.422;18.758;2024-02-28T11:27:57;124.20;;;63.80;;
37903;SDS011;23738;50.422;18.758;2024-02-28T11:30:27;126.10;;;67.40;;
37903;SDS011;23738;50.422;18.758;2024-02-28T11:32:57;134.30;;;70.30;;
37903;SDS011;23738;50.422;18.758;2024-02-28T11:35:32;133.40;;;68.70;;
37903;SDS011;23738;50.422;18.758;2024-02-28T11:38:05;142.80;;;69.90;;
37903;SDS011;23738;50.422;18.758;2024-02-28T11:40:39;129.80;;;64.40;;
37903;SDS011;23738;50.422;18.758;2024-02-28T11:43:20;116.10;;;60.90;;
37903;SDS011;23738;50.422;18.758;2024-02-28T11:45:52;120.90;;;65.30;;
37903;SDS011;23738;50.422;18.758;2024-02-28T11:48:25;139.40;;;74.30;;
37903;SDS011;23738;50.422;18.758;2024-02-28T11:50:56;142.30;;;69.00;;
37903;SDS011;23738;50.422;18.758;2024-02-28T11:53:30;126.40;;;63.70;;
37903;SDS011;23738;50.422;18.758;2024-02-28T11:56:05;123.70;;;63.00;;
37903;SDS011;23738;50.422;18.758;2024-02-28T11:58:37;133.20;;;68.60;;
37903;SDS011;23738;50.422;18.758;2024-02-28T12:01:18;126.00;;;67.40;;
37903;SDS011;23738;50.422;18.758;2024-02-28T12:03:47;118.70;;;63.00;;
37903;SDS011;23738;50.422;18.758;2024-02-28T12:06:18;127.10;;;61.50;;
37903;SDS011;23738;50.422;18.758;2024-02-28T12:08:48;121.30;;;62.60;;
37903;SDS011;23738;50.422;18.758;2024-02-28T12:11:25;113.80;;;61.00;;
37903;SDS011;23738;50.422;18.758;2024-02-28T12:13:58;118.20;;;62.70;;
37903;SDS011;23738;50.422;18.758;2024-02-28T12:16:32;120.70;;;61.70;;
37903;SDS011;23738;50.422;18.758;2024-02-28T12:19:07;131.00;;;66.90;;
37903;SDS011;23738;50.422;18.758;2024-02-28T12:21:39;116.40;;;56.50;;
37903;SDS011;23738;50.422;18.758;2024-02-28T12:24:11;114.90;;;56.00;;
37903;SDS011;23738;50.422;18.758;2024-02-28T12:26:47;112.20;;;55.40;;
37903;SDS011;23738;50.422;18.758;2024-02-28T12:29:21;97.10;;;50.10;;
37903;SDS011;23738;50.422;18.758;2024-02-28T12:34:26;96.10;;;49.40;;
37903;SDS011;23738;50.422;18.758;2024-02-28T12:36:57;98.80;;;49.80;;
37903;SDS011;23738;50.422;18.758;2024-02-28T12:39:39;96.50;;;49.00;;
37903;SDS011;23738;50.422;18.758;2024-02-28T12:42:10;96.40;;;47.80;;
37903;SDS011;23738;50.422;18.758;2024-02-28T12:47:38;90.80;;;48.50;;
37903;SDS011;23738;50.422;18.758;2024-02-28T12:50:10;93.90;;;50.80;;
37903;SDS011;23738;50.422;18.758;2024-02-28T12:52:43;95.90;;;50.80;;
37903;SDS011;23738;50.422;18.758;2024-02-28T12:55:17;93.60;;;45.70;;
37903;SDS011;23738;50.422;18.758;2024-02-28T12:57:49;87.00;;;46.50;;
37903;SDS011;23738;50.422;18.758;2024-02-28T13:00:20;88.40;;;43.70;;
37903;SDS011;23738;50.422;18.758;2024-02-28T13:02:49;93.70;;;47.10;;
37903;SDS011;23738;50.422;18.758;2024-02-28T13:05:21;83.30;;;43.70;;
37903;SDS011;23738;50.422;18.758;2024-02-28T13:07:52;88.30;;;46.90;;
37903;SDS011;23738;50.422;18.758;2024-02-28T13:10:23;91.70;;;50.90;;
37903;SDS011;23738;50.422;18.758;2024-02-28T13:12:54;91.10;;;49.40;;
37903;SDS011;23738;50.422;18.758;2024-02-28T13:15:25;90.10;;;45.90;;
37903;SDS011;23738;50.422;18.758;2024-02-28T13:17:55;94.50;;;47.00;;
37903;SDS011;23738;50.422;18.758;2024-02-28T13:20:24;85.20;;;45.40;;
37903;SDS011;23738;50.422;18.758;2024-02-28T13:22:54;84.50;;;46.20;;
37903;SDS011;23738;50.422;18.758;2024-02-28T13:25:25;84.40;;;45.50;;
37903;SDS011;23738;50.422;18.758;2024-02-28T13:27:55;79.00;;;43.50;;
37903;SDS011;23738;50.422;18.758;2024-02-28T13:30:25;86.70;;;44.90;;
37903;SDS011;23738;50.422;18.758;2024-02-28T13:32:55;75.70;;;42.10;;
37903;SDS011;23738;50.422;18.758;2024-02-28T13:35:26;70.50;;;40.40;;
37903;SDS011;23738;50.422;18.758;2024-02-28T13:38:00;71.20;;;42.20;;
37903;SDS011;23738;50.422;18.758;2024-02-28T13:40:33;81.00;;;45.00;;
37903;SDS011;23738;50.422;18.758;2024-02-28T13:43:04;82.50;;;43.30;;
37903;SDS011;23738;50.422;18.758;2024-02-28T13:45:34;74.00;;;41.10;;
37903;SDS011;23738;50.422;18.758;2024-02-28T13:48:15;71.00;;;40.40;;
37903;SDS011;23738;50.422;18.758;2024-02-28T13:50:49;76.20;;;42.70;;
37903;SDS011;23738;50.422;18.758;2024-02-28T13:53:22;87.20;;;44.80;;
37903;SDS011;23738;50.422;18.758;2024-02-28T13:55:55;76.30;;;40.40;;
37903;SDS011;23738;50.422;18.758;2024-02-28T13:58:25;73.50;;;41.30;;
37903;SDS011;23738;50.422;18.758;2024-02-28T14:00:56;70.90;;;39.60;;
37903;SDS011;23738;50.422;18.758;2024-02-28T14:03:27;75.30;;;42.10;;
37903;SDS011;23738;50.422;18.758;2024-02-28T14:05:58;75.80;;;42.50;;
37903;SDS011;23738;50.422;18.758;2024-02-28T14:08:33;75.20;;;40.40;;
37903;SDS011;23738;50.422;18.758;2024-02-28T14:11:03;80.00;;;43.60;;
37903;SDS011;23738;50.422;18.758;2024-02-28T14:13:36;81.40;;;39.90;;
37903;SDS011;23738;50.422;18.758;2024-02-28T14:16:20;73.90;;;39.40;;
37903;SDS011;23738;50.422;18.758;2024-02-28T14:18:49;79.10;;;39.10;;
37903;SDS011;23738;50.422;18.758;2024-02-28T14:21:20;81.70;;;43.00;;
37903;SDS011;23738;50.422;18.758;2024-02-28T14:23:52;85.80;;;43.90;;
37903;SDS011;23738;50.422;18.758;2024-02-28T14:26:22;79.20;;;40.20;;
37903;SDS011;23738;50.422;18.758;2024-02-28T14:28:51;81.70;;;41.60;;